sensor_id;sensor_type;location;lat;lon;timestamp;P1;durP1;ratioP1;P2;durP2;ratioP2
11113;SDS011;5610;52.154;9.198;2023-04-07T00:02:26;18.13;;;14.60;;
11113;SDS011;5610;52.154;9.198;2023-04-07T00:05:11;16.30;;;14.60;;
11113;SDS011;5610;52.154;9.198;2023-04-07T00:07:56;16.83;;;14.00;;
11113;SDS011;5610;52.154;9.198;2023-04-07T00:10:43;19.60;;;14.60;;
11113;SDS011;5610;52.154;9.198;2023-04-07T00:13:28;18.67;;;14.80;;
11113;SDS011;5610;52.154;9.198;2023-04-07T00:16:14;15.43;;;13.20;;
11113;SDS011;5610;52.154;9.198;2023-04-07T00:18:59;16.80;;;14.90;;
11113;SDS011;5610;52.154;9.198;2023-04-07T00:21:44;16.57;;;13.43;;
11113;SDS011;5610;52.154;9.198;2023-04-07T00:24:30;17.80;;;14.10;;
11113;SDS011;5610;52.154;9.198;2023-04-07T00:27:16;20.80;;;14.67;;
11113;SDS011;5610;52.154;9.198;2023-04-07T00:30:01;19.70;;;16.60;;
11113;SDS011;5610;52.154;9.198;2023-04-07T00:32:47;15.93;;;14.30;;
11113;SDS011;5610;52.154;9.198;2023-04-07T00:35:33;17.20;;;14.80;;
11113;SDS011;5610;52.154;9.198;2023-04-07T00:38:18;17.60;;;14.40;;
11113;SDS011;5610;52.154;9.198;2023-04-07T00:41:04;16.30;;;14.60;;
11113;SDS011;5610;52.154;9.198;2023-04-07T00:43:51;21.10;;;15.70;;
11113;SDS011;5610;52.154;9.198;2023-04-07T00:46:36;16.63;;;13.40;;
11113;SDS011;5610;52.154;9.198;2023-04-07T00:49:21;16.30;;;14.00;;
11113;SDS011;5610;52.154;9.198;2023-04-07T00:52:08;18.27;;;15.97;;
11113;SDS011;5610;52.154;9.198;2023-04-07T00:54:54;16.03;;;14.27;;
11113;SDS011;5610;52.154;9.198;2023-04-07T00:57:40;17.50;;;15.10;;
11113;SDS011;5610;52.154;9.198;2023-04-07T01:00:26;18.90;;;15.67;;
11113;SDS011;5610;52.154;9.198;2023-04-07T01:03:14;16.20;;;14.50;;
11113;SDS011;5610;52.154;9.198;2023-04-07T01:06:05;16.97;;;15.17;;
11113;SDS011;5610;52.154;9.198;2023-04-07T01:08:53;18.50;;;14.50;;
11113;SDS011;5610;52.154;9.198;2023-04-07T01:11:47;18.37;;;15.83;;
11113;SDS011;5610;52.154;9.198;2023-04-07T01:14:45;16.10;;;14.40;;
11113;SDS011;5610;52.154;9.198;2023-04-07T01:18:07;19.20;;;15.40;;
11113;SDS011;5610;52.154;9.198;2023-04-07T01:20:59;16.90;;;14.70;;
11113;SDS011;5610;52.154;9.198;2023-04-07T01:23:51;16.40;;;14.70;;
11113;SDS011;5610;52.154;9.198;2023-04-07T01:26:57;19.57;;;15.00;;
11113;SDS011;5610;52.154;9.198;2023-04-07T01:29:50;17.73;;;14.80;;
11113;SDS011;5610;52.154;9.198;2023-04-07T01:32:38;16.80;;;14.80;;
11113;SDS011;5610;52.154;9.198;2023-04-07T01:35:25;17.20;;;15.13;;
11113;SDS011;5610;52.154;9.198;2023-04-07T01:38:13;17.30;;;14.97;;
11113;SDS011;5610;52.154;9.198;2023-04-07T01:41:00;16.63;;;14.93;;
11113;SDS011;5610;52.154;9.198;2023-04-07T01:43:46;17.47;;;15.57;;
11113;SDS011;5610;52.154;9.198;2023-04-07T01:46:34;18.23;;;16.03;;
11113;SDS011;5610;52.154;9.198;2023-04-07T01:49:19;16.90;;;15.10;;
11113;SDS011;5610;52.154;9.198;2023-04-07T01:52:06;18.60;;;14.97;;
11113;SDS011;5610;52.154;9.198;2023-04-07T01:54:53;15.83;;;14.23;;
11113;SDS011;5610;52.154;9.198;2023-04-07T01:57:40;18.10;;;16.20;;
11113;SDS011;5610;52.154;9.198;2023-04-07T02:00:31;17.30;;;15.50;;
11113;SDS011;5610;52.154;9.198;2023-04-07T02:03:22;17.60;;;15.67;;
11113;SDS011;5610;52.154;9.198;2023-04-07T02:06:12;15.90;;;14.20;;
11113;SDS011;5610;52.154;9.198;2023-04-07T02:09:04;16.93;;;14.57;;
11113;SDS011;5610;52.154;9.198;2023-04-07T02:11:51;17.30;;;14.33;;
11113;SDS011;5610;52.154;9.198;2023-04-07T02:14:41;20.30;;;14.53;;
11113;SDS011;5610;52.154;9.198;2023-04-07T02:17:30;16.83;;;15.07;;
11113;SDS011;5610;52.154;9.198;2023-04-07T02:20:19;17.00;;;15.30;;
11113;SDS011;5610;52.154;9.198;2023-04-07T02:23:06;15.87;;;14.27;;
11113;SDS011;5610;52.154;9.198;2023-04-07T02:25:54;17.07;;;15.30;;
11113;SDS011;5610;52.154;9.198;2023-04-07T02:28:40;17.57;;;15.77;;
11113;SDS011;5610;52.154;9.198;2023-04-07T02:31:27;17.77;;;15.97;;
11113;SDS011;5610;52.154;9.198;2023-04-07T02:34:12;17.93;;;15.97;;
11113;SDS011;5610;52.154;9.198;2023-04-07T02:36:59;16.77;;;15.00;;
11113;SDS011;5610;52.154;9.198;2023-04-07T02:39:44;17.30;;;15.57;;
11113;SDS011;5610;52.154;9.198;2023-04-07T02:42:30;16.90;;;15.20;;
11113;SDS011;5610;52.154;9.198;2023-04-07T02:45:15;16.63;;;14.93;;
11113;SDS011;5610;52.154;9.198;2023-04-07T02:48:00;16.40;;;14.63;;
11113;SDS011;5610;52.154;9.198;2023-04-07T02:50:45;18.00;;;15.20;;
11113;SDS011;5610;52.154;9.198;2023-04-07T02:53:32;16.37;;;14.63;;
11113;SDS011;5610;52.154;9.198;2023-04-07T02:56:17;16.33;;;14.07;;
11113;SDS011;5610;52.154;9.198;2023-04-07T02:59:03;17.03;;;15.10;;
11113;SDS011;5610;52.154;9.198;2023-04-07T03:01:53;17.20;;;15.40;;
11113;SDS011;5610;52.154;9.198;2023-04-07T03:04:38;15.30;;;13.80;;
11113;SDS011;5610;52.154;9.198;2023-04-07T03:07:24;16.30;;;14.60;;
11113;SDS011;5610;52.154;9.198;2023-04-07T03:10:13;17.03;;;15.33;;
11113;SDS011;5610;52.154;9.198;2023-04-07T03:12:59;16.47;;;14.90;;
11113;SDS011;5610;52.154;9.198;2023-04-07T03:15:45;17.03;;;15.43;;
11113;SDS011;5610;52.154;9.198;2023-04-07T03:18:33;16.03;;;14.43;;
11113;SDS011;5610;52.154;9.198;2023-04-07T03:21:18;15.53;;;13.93;;
11113;SDS011;5610;52.154;9.198;2023-04-07T03:24:04;17.20;;;15.40;;
11113;SDS011;5610;52.154;9.198;2023-04-07T03:26:51;16.00;;;14.00;;
11113;SDS011;5610;52.154;9.198;2023-04-07T03:29:50;15.30;;;13.70;;
11113;SDS011;5610;52.154;9.198;2023-04-07T03:32:37;15.63;;;14.00;;
11113;SDS011;5610;52.154;9.198;2023-04-07T03:35:22;15.73;;;14.10;;
11113;SDS011;5610;52.154;9.198;2023-04-07T03:38:07;16.20;;;14.60;;
11113;SDS011;5610;52.154;9.198;2023-04-07T03:40:53;15.57;;;14.03;;
11113;SDS011;5610;52.154;9.198;2023-04-07T03:43:40;16.40;;;14.67;;
11113;SDS011;5610;52.154;9.198;2023-04-07T03:46:25;15.53;;;13.93;;
11113;SDS011;5610;52.154;9.198;2023-04-07T03:49:11;16.07;;;14.47;;
11113;SDS011;5610;52.154;9.198;2023-04-07T03:51:56;16.60;;;14.80;;
11113;SDS011;5610;52.154;9.198;2023-04-07T03:54:42;16.10;;;14.40;;
11113;SDS011;5610;52.154;9.198;2023-04-07T03:57:27;15.73;;;14.13;;
11113;SDS011;5610;52.154;9.198;2023-04-07T04:00:14;16.00;;;14.40;;
11113;SDS011;5610;52.154;9.198;2023-04-07T04:03:18;18.10;;;14.73;;
11113;SDS011;5610;52.154;9.198;2023-04-07T04:06:36;16.30;;;14.57;;
11113;SDS011;5610;52.154;9.198;2023-04-07T04:09:44;15.60;;;14.00;;
11113;SDS011;5610;52.154;9.198;2023-04-07T04:12:30;14.63;;;13.20;;
11113;SDS011;5610;52.154;9.198;2023-04-07T04:15:23;15.93;;;14.43;;
11113;SDS011;5610;52.154;9.198;2023-04-07T04:18:08;17.37;;;15.47;;
11113;SDS011;5610;52.154;9.198;2023-04-07T04:20:53;16.33;;;14.70;;
11113;SDS011;5610;52.154;9.198;2023-04-07T04:23:39;15.17;;;13.33;;
11113;SDS011;5610;52.154;9.198;2023-04-07T04:26:24;17.70;;;15.17;;
11113;SDS011;5610;52.154;9.198;2023-04-07T04:29:12;16.27;;;14.55;;
11113;SDS011;5610;52.154;9.198;2023-04-07T04:32:01;16.98;;;15.38;;
11113;SDS011;5610;52.154;9.198;2023-04-07T04:34:47;20.67;;;14.23;;
11113;SDS011;5610;52.154;9.198;2023-04-07T04:37:33;18.75;;;15.90;;
11113;SDS011;5610;52.154;9.198;2023-04-07T04:40:20;18.25;;;15.50;;
11113;SDS011;5610;52.154;9.198;2023-04-07T04:43:07;18.50;;;16.08;;
11113;SDS011;5610;52.154;9.198;2023-04-07T04:45:54;16.92;;;15.38;;
11113;SDS011;5610;52.154;9.198;2023-04-07T04:48:44;17.02;;;15.30;;
11113;SDS011;5610;52.154;9.198;2023-04-07T04:51:30;16.75;;;15.05;;
11113;SDS011;5610;52.154;9.198;2023-04-07T04:54:21;16.63;;;14.63;;
11113;SDS011;5610;52.154;9.198;2023-04-07T04:57:07;16.13;;;14.43;;
11113;SDS011;5610;52.154;9.198;2023-04-07T04:59:55;17.30;;;15.52;;
11113;SDS011;5610;52.154;9.198;2023-04-07T05:02:40;17.08;;;14.73;;
11113;SDS011;5610;52.154;9.198;2023-04-07T05:05:27;16.87;;;15.17;;
11113;SDS011;5610;52.154;9.198;2023-04-07T05:08:14;16.10;;;14.43;;
11113;SDS011;5610;52.154;9.198;2023-04-07T05:10:59;17.15;;;15.45;;
11113;SDS011;5610;52.154;9.198;2023-04-07T05:13:49;17.10;;;15.40;;
11113;SDS011;5610;52.154;9.198;2023-04-07T05:16:34;17.00;;;14.82;;
11113;SDS011;5610;52.154;9.198;2023-04-07T05:19:21;17.98;;;15.05;;
11113;SDS011;5610;52.154;9.198;2023-04-07T05:22:11;16.30;;;14.70;;
11113;SDS011;5610;52.154;9.198;2023-04-07T05:25:02;16.38;;;14.60;;
11113;SDS011;5610;52.154;9.198;2023-04-07T05:27:49;16.08;;;14.48;;
11113;SDS011;5610;52.154;9.198;2023-04-07T05:30:35;17.80;;;15.30;;
11113;SDS011;5610;52.154;9.198;2023-04-07T05:33:20;16.40;;;14.77;;
11113;SDS011;5610;52.154;9.198;2023-04-07T05:36:09;16.52;;;14.93;;
11113;SDS011;5610;52.154;9.198;2023-04-07T05:38:58;16.90;;;15.20;;
11113;SDS011;5610;52.154;9.198;2023-04-07T05:41:44;18.50;;;16.40;;
11113;SDS011;5610;52.154;9.198;2023-04-07T05:44:31;18.05;;;16.10;;
11113;SDS011;5610;52.154;9.198;2023-04-07T05:47:17;18.50;;;16.60;;
11113;SDS011;5610;52.154;9.198;2023-04-07T05:50:02;17.13;;;15.43;;
11113;SDS011;5610;52.154;9.198;2023-04-07T05:52:50;19.43;;;17.47;;
11113;SDS011;5610;52.154;9.198;2023-04-07T05:55:42;16.90;;;15.30;;
11113;SDS011;5610;52.154;9.198;2023-04-07T05:58:33;17.17;;;15.37;;
11113;SDS011;5610;52.154;9.198;2023-04-07T06:01:19;18.77;;;16.80;;
11113;SDS011;5610;52.154;9.198;2023-04-07T06:04:04;18.10;;;16.20;;
11113;SDS011;5610;52.154;9.198;2023-04-07T06:06:50;18.47;;;16.57;;
11113;SDS011;5610;52.154;9.198;2023-04-07T06:09:37;19.80;;;17.77;;
11113;SDS011;5610;52.154;9.198;2023-04-07T06:12:24;17.53;;;15.83;;
11113;SDS011;5610;52.154;9.198;2023-04-07T06:15:09;17.23;;;15.53;;
11113;SDS011;5610;52.154;9.198;2023-04-07T06:17:55;17.60;;;15.90;;
11113;SDS011;5610;52.154;9.198;2023-04-07T06:20:41;17.93;;;16.13;;
11113;SDS011;5610;52.154;9.198;2023-04-07T06:23:26;17.30;;;15.43;;
11113;SDS011;5610;52.154;9.198;2023-04-07T06:26:12;16.50;;;14.70;;
11113;SDS011;5610;52.154;9.198;2023-04-07T06:28:59;17.13;;;15.50;;
11113;SDS011;5610;52.154;9.198;2023-04-07T06:31:44;17.77;;;15.97;;
11113;SDS011;5610;52.154;9.198;2023-04-07T06:34:29;18.00;;;16.20;;
11113;SDS011;5610;52.154;9.198;2023-04-07T06:37:14;17.70;;;15.90;;
11113;SDS011;5610;52.154;9.198;2023-04-07T06:39:59;17.27;;;15.53;;
11113;SDS011;5610;52.154;9.198;2023-04-07T06:42:45;17.33;;;15.73;;
11113;SDS011;5610;52.154;9.198;2023-04-07T06:45:41;16.07;;;14.47;;
11113;SDS011;5610;52.154;9.198;2023-04-07T06:48:26;17.60;;;15.80;;
11113;SDS011;5610;52.154;9.198;2023-04-07T06:51:11;16.07;;;14.57;;
11113;SDS011;5610;52.154;9.198;2023-04-07T06:53:56;17.87;;;16.17;;
11113;SDS011;5610;52.154;9.198;2023-04-07T06:56:42;16.00;;;14.50;;
11113;SDS011;5610;52.154;9.198;2023-04-07T06:59:27;16.50;;;14.90;;
11113;SDS011;5610;52.154;9.198;2023-04-07T07:02:14;17.50;;;14.97;;
11113;SDS011;5610;52.154;9.198;2023-04-07T07:05:00;18.27;;;16.37;;
11113;SDS011;5610;52.154;9.198;2023-04-07T07:07:46;15.77;;;14.27;;
11113;SDS011;5610;52.154;9.198;2023-04-07T07:10:31;16.97;;;15.20;;
11113;SDS011;5610;52.154;9.198;2023-04-07T07:13:17;17.13;;;15.50;;
11113;SDS011;5610;52.154;9.198;2023-04-07T07:16:02;17.57;;;14.27;;
11113;SDS011;5610;52.154;9.198;2023-04-07T07:18:49;15.87;;;14.37;;
11113;SDS011;5610;52.154;9.198;2023-04-07T07:21:34;15.03;;;13.53;;
11113;SDS011;5610;52.154;9.198;2023-04-07T07:24:20;16.00;;;13.17;;
11113;SDS011;5610;52.154;9.198;2023-04-07T07:27:05;16.10;;;14.40;;
11113;SDS011;5610;52.154;9.198;2023-04-07T07:29:50;16.03;;;14.50;;
11113;SDS011;5610;52.154;9.198;2023-04-07T07:32:35;17.27;;;15.13;;
11113;SDS011;5610;52.154;9.198;2023-04-07T07:35:22;15.83;;;14.07;;
11113;SDS011;5610;52.154;9.198;2023-04-07T07:38:08;16.33;;;14.67;;
11113;SDS011;5610;52.154;9.198;2023-04-07T07:40:53;16.27;;;14.60;;
11113;SDS011;5610;52.154;9.198;2023-04-07T07:43:38;16.17;;;14.57;;
11113;SDS011;5610;52.154;9.198;2023-04-07T07:46:24;16.50;;;14.80;;
11113;SDS011;5610;52.154;9.198;2023-04-07T07:49:10;15.30;;;13.73;;
11113;SDS011;5610;52.154;9.198;2023-04-07T07:51:56;19.10;;;13.60;;
11113;SDS011;5610;52.154;9.198;2023-04-07T07:54:42;16.10;;;14.40;;
11113;SDS011;5610;52.154;9.198;2023-04-07T07:57:27;15.40;;;13.90;;
11113;SDS011;5610;52.154;9.198;2023-04-07T08:00:14;16.07;;;14.50;;
11113;SDS011;5610;52.154;9.198;2023-04-07T08:02:59;15.27;;;13.67;;
11113;SDS011;5610;52.154;9.198;2023-04-07T08:05:44;16.50;;;13.30;;
11113;SDS011;5610;52.154;9.198;2023-04-07T08:08:31;14.23;;;12.97;;
11113;SDS011;5610;52.154;9.198;2023-04-07T08:11:16;14.30;;;12.93;;
11113;SDS011;5610;52.154;9.198;2023-04-07T08:14:01;15.23;;;13.47;;
11113;SDS011;5610;52.154;9.198;2023-04-07T08:16:46;13.97;;;12.70;;
11113;SDS011;5610;52.154;9.198;2023-04-07T08:19:32;14.07;;;12.67;;
11113;SDS011;5610;52.154;9.198;2023-04-07T08:22:17;14.20;;;12.80;;
11113;SDS011;5610;52.154;9.198;2023-04-07T08:25:05;14.10;;;12.57;;
11113;SDS011;5610;52.154;9.198;2023-04-07T08:27:51;13.43;;;12.20;;
11113;SDS011;5610;52.154;9.198;2023-04-07T08:30:36;13.67;;;12.33;;
11113;SDS011;5610;52.154;9.198;2023-04-07T08:33:21;13.53;;;12.13;;
11113;SDS011;5610;52.154;9.198;2023-04-07T08:36:07;13.37;;;11.97;;
11113;SDS011;5610;52.154;9.198;2023-04-07T08:38:52;12.80;;;11.50;;
11113;SDS011;5610;52.154;9.198;2023-04-07T08:41:39;12.73;;;11.50;;
11113;SDS011;5610;52.154;9.198;2023-04-07T08:44:27;13.03;;;11.83;;
11113;SDS011;5610;52.154;9.198;2023-04-07T08:47:13;13.20;;;11.90;;
11113;SDS011;5610;52.154;9.198;2023-04-07T08:50:01;13.07;;;11.70;;
11113;SDS011;5610;52.154;9.198;2023-04-07T08:52:49;13.77;;;12.50;;
11113;SDS011;5610;52.154;9.198;2023-04-07T08:55:36;13.60;;;12.30;;
11113;SDS011;5610;52.154;9.198;2023-04-07T08:58:23;14.17;;;12.87;;
11113;SDS011;5610;52.154;9.198;2023-04-07T09:01:09;12.80;;;11.60;;
11113;SDS011;5610;52.154;9.198;2023-04-07T09:03:56;13.20;;;11.90;;
11113;SDS011;5610;52.154;9.198;2023-04-07T09:06:42;13.00;;;11.80;;
11113;SDS011;5610;52.154;9.198;2023-04-07T09:09:27;13.47;;;12.27;;
11113;SDS011;5610;52.154;9.198;2023-04-07T09:12:13;12.70;;;11.50;;
11113;SDS011;5610;52.154;9.198;2023-04-07T09:15:00;13.17;;;11.93;;
11113;SDS011;5610;52.154;9.198;2023-04-07T09:17:45;13.40;;;12.10;;
11113;SDS011;5610;52.154;9.198;2023-04-07T09:23:41;13.10;;;11.80;;
11113;SDS011;5610;52.154;9.198;2023-04-07T09:26:27;13.27;;;11.90;;
11113;SDS011;5610;52.154;9.198;2023-04-07T09:29:17;13.47;;;12.07;;
11113;SDS011;5610;52.154;9.198;2023-04-07T09:32:04;11.90;;;10.77;;
11113;SDS011;5610;52.154;9.198;2023-04-07T09:34:50;12.63;;;11.33;;
11113;SDS011;5610;52.154;9.198;2023-04-07T09:37:42;13.17;;;11.97;;
11113;SDS011;5610;52.154;9.198;2023-04-07T09:40:28;13.60;;;11.40;;
11113;SDS011;5610;52.154;9.198;2023-04-07T09:43:15;12.57;;;11.30;;
11113;SDS011;5610;52.154;9.198;2023-04-07T09:46:08;14.20;;;11.53;;
11113;SDS011;5610;52.154;9.198;2023-04-07T09:49:01;15.00;;;11.03;;
11113;SDS011;5610;52.154;9.198;2023-04-07T09:51:55;13.73;;;12.33;;
11113;SDS011;5610;52.154;9.198;2023-04-07T09:54:42;12.33;;;11.27;;
11113;SDS011;5610;52.154;9.198;2023-04-07T09:57:27;13.03;;;11.80;;
11113;SDS011;5610;52.154;9.198;2023-04-07T10:00:13;13.77;;;12.50;;
11113;SDS011;5610;52.154;9.198;2023-04-07T10:02:59;13.93;;;12.73;;
11113;SDS011;5610;52.154;9.198;2023-04-07T10:05:47;12.93;;;11.70;;
11113;SDS011;5610;52.154;9.198;2023-04-07T10:08:33;14.40;;;13.00;;
11113;SDS011;5610;52.154;9.198;2023-04-07T10:11:20;13.63;;;12.43;;
11113;SDS011;5610;52.154;9.198;2023-04-07T10:14:05;12.87;;;11.67;;
11113;SDS011;5610;52.154;9.198;2023-04-07T10:16:51;13.70;;;12.30;;
11113;SDS011;5610;52.154;9.198;2023-04-07T10:19:37;15.00;;;13.50;;
11113;SDS011;5610;52.154;9.198;2023-04-07T10:22:24;13.70;;;12.40;;
11113;SDS011;5610;52.154;9.198;2023-04-07T10:25:11;15.77;;;13.53;;
11113;SDS011;5610;52.154;9.198;2023-04-07T10:28:02;14.50;;;13.10;;
11113;SDS011;5610;52.154;9.198;2023-04-07T10:30:50;16.20;;;13.97;;
11113;SDS011;5610;52.154;9.198;2023-04-07T10:33:46;13.43;;;12.23;;
11113;SDS011;5610;52.154;9.198;2023-04-07T10:36:33;13.90;;;12.67;;
11113;SDS011;5610;52.154;9.198;2023-04-07T10:39:20;14.37;;;13.03;;
11113;SDS011;5610;52.154;9.198;2023-04-07T10:42:06;14.33;;;12.93;;
11113;SDS011;5610;52.154;9.198;2023-04-07T10:44:51;17.20;;;13.73;;
11113;SDS011;5610;52.154;9.198;2023-04-07T10:47:39;13.63;;;12.50;;
11113;SDS011;5610;52.154;9.198;2023-04-07T10:57:11;13.43;;;12.03;;
11113;SDS011;5610;52.154;9.198;2023-04-07T11:00:15;13.20;;;12.00;;
11113;SDS011;5610;52.154;9.198;2023-04-07T11:03:08;14.77;;;13.40;;
11113;SDS011;5610;52.154;9.198;2023-04-07T11:06:01;14.47;;;13.17;;
11113;SDS011;5610;52.154;9.198;2023-04-07T11:08:47;15.43;;;14.03;;
11113;SDS011;5610;52.154;9.198;2023-04-07T11:11:34;14.10;;;12.90;;
11113;SDS011;5610;52.154;9.198;2023-04-07T11:14:26;14.47;;;13.17;;
11113;SDS011;5610;52.154;9.198;2023-04-07T11:17:13;14.47;;;13.27;;
11113;SDS011;5610;52.154;9.198;2023-04-07T11:20:00;14.00;;;12.80;;
11113;SDS011;5610;52.154;9.198;2023-04-07T11:22:57;14.27;;;13.07;;
11113;SDS011;5610;52.154;9.198;2023-04-07T11:25:44;14.30;;;13.20;;
11113;SDS011;5610;52.154;9.198;2023-04-07T11:28:31;14.10;;;12.73;;
11113;SDS011;5610;52.154;9.198;2023-04-07T11:31:21;14.57;;;13.27;;
11113;SDS011;5610;52.154;9.198;2023-04-07T11:34:07;15.07;;;13.80;;
11113;SDS011;5610;52.154;9.198;2023-04-07T11:36:53;14.40;;;13.10;;
11113;SDS011;5610;52.154;9.198;2023-04-07T11:39:41;14.27;;;13.10;;
11113;SDS011;5610;52.154;9.198;2023-04-07T11:42:32;12.60;;;11.70;;
11113;SDS011;5610;52.154;9.198;2023-04-07T11:45:18;12.70;;;11.70;;
11113;SDS011;5610;52.154;9.198;2023-04-07T11:48:05;14.23;;;13.07;;
11113;SDS011;5610;52.154;9.198;2023-04-07T11:51:14;13.50;;;12.47;;
11113;SDS011;5610;52.154;9.198;2023-04-07T11:54:00;12.80;;;11.70;;
11113;SDS011;5610;52.154;9.198;2023-04-07T11:56:46;13.63;;;12.37;;
11113;SDS011;5610;52.154;9.198;2023-04-07T11:59:32;13.97;;;12.60;;
11113;SDS011;5610;52.154;9.198;2023-04-07T12:02:29;13.30;;;12.10;;
11113;SDS011;5610;52.154;9.198;2023-04-07T12:05:16;12.23;;;11.33;;
11113;SDS011;5610;52.154;9.198;2023-04-07T12:08:01;12.77;;;11.77;;
11113;SDS011;5610;52.154;9.198;2023-04-07T12:10:46;13.13;;;12.03;;
11113;SDS011;5610;52.154;9.198;2023-04-07T12:13:32;11.70;;;10.80;;
11113;SDS011;5610;52.154;9.198;2023-04-07T12:16:17;12.50;;;11.50;;
11113;SDS011;5610;52.154;9.198;2023-04-07T12:19:02;11.97;;;11.07;;
11113;SDS011;5610;52.154;9.198;2023-04-07T12:21:49;11.90;;;11.00;;
11113;SDS011;5610;52.154;9.198;2023-04-07T12:24:34;11.33;;;10.30;;
11113;SDS011;5610;52.154;9.198;2023-04-07T12:27:20;12.23;;;11.23;;
11113;SDS011;5610;52.154;9.198;2023-04-07T12:30:05;11.53;;;10.53;;
11113;SDS011;5610;52.154;9.198;2023-04-07T12:32:51;12.57;;;11.47;;
11113;SDS011;5610;52.154;9.198;2023-04-07T12:35:37;11.80;;;10.90;;
11113;SDS011;5610;52.154;9.198;2023-04-07T12:38:24;11.30;;;10.47;;
11113;SDS011;5610;52.154;9.198;2023-04-07T12:41:09;11.53;;;10.63;;
11113;SDS011;5610;52.154;9.198;2023-04-07T12:43:54;11.27;;;10.43;;
11113;SDS011;5610;52.154;9.198;2023-04-07T12:46:40;14.40;;;10.47;;
11113;SDS011;5610;52.154;9.198;2023-04-07T12:49:26;11.50;;;10.40;;
11113;SDS011;5610;52.154;9.198;2023-04-07T12:52:11;11.80;;;10.90;;
11113;SDS011;5610;52.154;9.198;2023-04-07T12:54:57;11.40;;;10.30;;
11113;SDS011;5610;52.154;9.198;2023-04-07T12:57:42;11.40;;;10.33;;
11113;SDS011;5610;52.154;9.198;2023-04-07T13:00:27;12.30;;;11.30;;
11113;SDS011;5610;52.154;9.198;2023-04-07T13:03:12;12.00;;;10.90;;
11113;SDS011;5610;52.154;9.198;2023-04-07T13:05:58;13.50;;;12.30;;
11113;SDS011;5610;52.154;9.198;2023-04-07T13:08:45;12.63;;;11.63;;
11113;SDS011;5610;52.154;9.198;2023-04-07T13:11:32;11.33;;;10.43;;
11113;SDS011;5610;52.154;9.198;2023-04-07T13:14:17;11.07;;;10.27;;
11113;SDS011;5610;52.154;9.198;2023-04-07T13:17:02;12.47;;;11.27;;
11113;SDS011;5610;52.154;9.198;2023-04-07T13:19:48;11.50;;;10.50;;
11113;SDS011;5610;52.154;9.198;2023-04-07T13:22:33;11.50;;;10.60;;
11113;SDS011;5610;52.154;9.198;2023-04-07T13:25:18;12.87;;;11.10;;
11113;SDS011;5610;52.154;9.198;2023-04-07T13:28:05;12.60;;;11.30;;
11113;SDS011;5610;52.154;9.198;2023-04-07T13:30:51;11.73;;;10.83;;
11113;SDS011;5610;52.154;9.198;2023-04-07T13:33:36;12.47;;;11.27;;
11113;SDS011;5610;52.154;9.198;2023-04-07T13:36:21;11.93;;;10.83;;
11113;SDS011;5610;52.154;9.198;2023-04-07T13:39:06;11.43;;;10.23;;
11113;SDS011;5610;52.154;9.198;2023-04-07T13:41:52;12.57;;;11.30;;
11113;SDS011;5610;52.154;9.198;2023-04-07T13:44:38;12.27;;;11.03;;
11113;SDS011;5610;52.154;9.198;2023-04-07T13:47:26;13.10;;;12.00;;
11113;SDS011;5610;52.154;9.198;2023-04-07T13:50:13;12.13;;;11.10;;
11113;SDS011;5610;52.154;9.198;2023-04-07T13:52:58;12.90;;;11.80;;
11113;SDS011;5610;52.154;9.198;2023-04-07T13:55:43;11.30;;;10.40;;
11113;SDS011;5610;52.154;9.198;2023-04-07T13:58:28;13.10;;;11.00;;
11113;SDS011;5610;52.154;9.198;2023-04-07T14:01:15;11.70;;;10.80;;
11113;SDS011;5610;52.154;9.198;2023-04-07T14:04:01;12.03;;;10.97;;
11113;SDS011;5610;52.154;9.198;2023-04-07T14:06:47;12.70;;;11.70;;
11113;SDS011;5610;52.154;9.198;2023-04-07T14:09:32;10.70;;;9.90;;
11113;SDS011;5610;52.154;9.198;2023-04-07T14:12:18;11.10;;;10.10;;
11113;SDS011;5610;52.154;9.198;2023-04-07T14:15:04;12.07;;;11.13;;
11113;SDS011;5610;52.154;9.198;2023-04-07T14:17:52;11.40;;;10.37;;
11113;SDS011;5610;52.154;9.198;2023-04-07T14:20:37;11.73;;;10.73;;
11113;SDS011;5610;52.154;9.198;2023-04-07T14:23:22;12.40;;;11.30;;
11113;SDS011;5610;52.154;9.198;2023-04-07T14:26:08;12.23;;;11.20;;
11113;SDS011;5610;52.154;9.198;2023-04-07T14:28:54;10.63;;;9.83;;
11113;SDS011;5610;52.154;9.198;2023-04-07T14:31:40;10.97;;;10.10;;
11113;SDS011;5610;52.154;9.198;2023-04-07T14:34:26;12.00;;;11.00;;
11113;SDS011;5610;52.154;9.198;2023-04-07T14:37:12;11.70;;;10.80;;
11113;SDS011;5610;52.154;9.198;2023-04-07T14:39:58;11.60;;;10.60;;
11113;SDS011;5610;52.154;9.198;2023-04-07T14:42:44;13.03;;;11.93;;
11113;SDS011;5610;52.154;9.198;2023-04-07T14:45:29;11.27;;;10.23;;
11113;SDS011;5610;52.154;9.198;2023-04-07T14:48:15;11.80;;;10.47;;
11113;SDS011;5610;52.154;9.198;2023-04-07T14:51:02;20.97;;;10.50;;
11113;SDS011;5610;52.154;9.198;2023-04-07T14:53:48;11.67;;;10.60;;
11113;SDS011;5610;52.154;9.198;2023-04-07T14:56:36;11.83;;;10.93;;
11113;SDS011;5610;52.154;9.198;2023-04-07T14:59:21;11.70;;;10.73;;
11113;SDS011;5610;52.154;9.198;2023-04-07T15:02:06;11.97;;;11.07;;
11113;SDS011;5610;52.154;9.198;2023-04-07T15:04:51;12.30;;;11.20;;
11113;SDS011;5610;52.154;9.198;2023-04-07T15:07:38;11.60;;;10.60;;
11113;SDS011;5610;52.154;9.198;2023-04-07T15:10:23;12.20;;;11.07;;
11113;SDS011;5610;52.154;9.198;2023-04-07T15:13:08;12.57;;;11.33;;
11113;SDS011;5610;52.154;9.198;2023-04-07T15:15:54;12.10;;;10.90;;
11113;SDS011;5610;52.154;9.198;2023-04-07T15:18:40;11.97;;;10.87;;
11113;SDS011;5610;52.154;9.198;2023-04-07T15:21:26;13.80;;;12.37;;
11113;SDS011;5610;52.154;9.198;2023-04-07T15:24:12;14.93;;;13.33;;
11113;SDS011;5610;52.154;9.198;2023-04-07T15:26:58;12.70;;;11.60;;
11113;SDS011;5610;52.154;9.198;2023-04-07T15:29:43;11.10;;;10.10;;
11113;SDS011;5610;52.154;9.198;2023-04-07T15:32:29;12.40;;;11.20;;
11113;SDS011;5610;52.154;9.198;2023-04-07T15:35:14;11.80;;;10.20;;
11113;SDS011;5610;52.154;9.198;2023-04-07T15:38:02;12.33;;;11.13;;
11113;SDS011;5610;52.154;9.198;2023-04-07T15:40:49;11.97;;;10.37;;
11113;SDS011;5610;52.154;9.198;2023-04-07T15:43:34;11.87;;;10.67;;
11113;SDS011;5610;52.154;9.198;2023-04-07T15:46:20;12.27;;;11.17;;
11113;SDS011;5610;52.154;9.198;2023-04-07T15:49:05;12.37;;;11.17;;
11113;SDS011;5610;52.154;9.198;2023-04-07T15:51:50;12.10;;;10.90;;
11113;SDS011;5610;52.154;9.198;2023-04-07T15:54:35;11.00;;;10.00;;
11113;SDS011;5610;52.154;9.198;2023-04-07T15:57:21;11.60;;;10.60;;
11113;SDS011;5610;52.154;9.198;2023-04-07T16:00:07;11.47;;;10.37;;
11113;SDS011;5610;52.154;9.198;2023-04-07T16:02:53;10.47;;;9.53;;
11113;SDS011;5610;52.154;9.198;2023-04-07T16:05:38;11.07;;;10.07;;
11113;SDS011;5610;52.154;9.198;2023-04-07T16:08:23;11.37;;;9.90;;
11113;SDS011;5610;52.154;9.198;2023-04-07T16:11:09;10.87;;;9.87;;
11113;SDS011;5610;52.154;9.198;2023-04-07T16:13:55;10.40;;;9.43;;
11113;SDS011;5610;52.154;9.198;2023-04-07T16:16:40;10.60;;;9.50;;
11113;SDS011;5610;52.154;9.198;2023-04-07T16:19:27;11.23;;;10.23;;
11113;SDS011;5610;52.154;9.198;2023-04-07T16:22:12;10.70;;;9.73;;
11113;SDS011;5610;52.154;9.198;2023-04-07T16:24:57;10.10;;;9.07;;
11113;SDS011;5610;52.154;9.198;2023-04-07T16:27:42;11.30;;;10.20;;
11113;SDS011;5610;52.154;9.198;2023-04-07T16:30:31;10.30;;;9.30;;
11113;SDS011;5610;52.154;9.198;2023-04-07T16:33:16;9.67;;;8.67;;
11113;SDS011;5610;52.154;9.198;2023-04-07T16:36:01;11.77;;;9.50;;
11113;SDS011;5610;52.154;9.198;2023-04-07T16:38:46;10.40;;;9.30;;
11113;SDS011;5610;52.154;9.198;2023-04-07T16:41:34;9.87;;;8.87;;
11113;SDS011;5610;52.154;9.198;2023-04-07T16:44:19;9.90;;;8.90;;